createdAt,value
2023-01-19T00:01:53.640Z,96424.64
2023-01-19T00:04:27.989Z,96421.60
2023-01-19T00:06:59.548Z,96428.14
2023-01-19T00:09:33.589Z,96430.11
2023-01-19T00:12:01.991Z,96428.97
2023-01-19T00:14:32.793Z,96428.52
2023-01-19T00:17:04.519Z,96426.09
2023-01-19T00:19:35.322Z,96421.67
2023-01-19T00:22:06.214Z,96420.60
2023-01-19T00:24:36.714Z,96423.27
2023-01-19T00:27:09.233Z,96425.10
2023-01-19T00:29:42.604Z,96435.05
2023-01-19T00:32:13.645Z,96434.30
2023-01-19T00:34:49.701Z,96423.05
2023-01-19T00:37:20.634Z,96413.39
2023-01-19T00:39:49.090Z,96417.95
2023-01-19T00:42:35.959Z,96423.80
2023-01-19T00:45:04.673Z,96429.13
2023-01-19T00:47:33.633Z,96433.06
2023-01-19T00:50:02.438Z,96425.55
2023-01-19T00:52:30.970Z,96423.20
2023-01-19T00:54:59.588Z,96419.16
2023-01-19T00:57:31.971Z,96405.64
2023-01-19T01:00:00.613Z,96416.82
2023-01-19T01:02:29.662Z,96413.39
2023-01-19T01:04:58.375Z,96407.02
2023-01-19T01:07:26.811Z,96400.93
2023-01-19T01:09:56.913Z,96391.50
2023-01-19T01:12:28.900Z,96387.10
2023-01-19T01:14:57.483Z,96382.54
2023-01-19T01:17:26.068Z,96389.01
2023-01-19T01:19:54.374Z,96385.05
2023-01-19T01:22:22.685Z,96384.07
2023-01-19T01:24:51.300Z,96376.86
2023-01-19T01:27:19.720Z,96371.54
2023-01-19T01:29:48.526Z,96365.00
2023-01-19T01:32:17.001Z,96361.57
2023-01-19T01:34:45.350Z,96363.31
2023-01-19T01:37:13.584Z,96353.82
2023-01-19T01:39:41.961Z,96354.58
2023-01-19T01:42:17.882Z,96358.60
2023-01-19T01:44:56.337Z,96349.49
2023-01-19T01:47:28.224Z,96337.41
2023-01-19T01:50:15.621Z,96333.84
2023-01-19T01:53:07.573Z,96343.19
2023-01-19T01:55:41.440Z,96347.67
2023-01-19T01:58:11.601Z,96344.94
2023-01-19T02:01:01.245Z,96344.95
2023-01-19T02:03:29.748Z,96352.24
2023-01-19T02:06:02.045Z,96342.90
2023-01-19T02:09:07.069Z,96347.77
2023-01-19T02:11:55.032Z,96341.39
2023-01-19T02:14:23.513Z,96330.38
2023-01-19T02:16:51.950Z,96329.08
2023-01-19T02:19:37.865Z,96330.77
2023-01-19T02:22:22.233Z,96323.10
2023-01-19T02:24:50.379Z,96311.17
2023-01-19T02:27:19.424Z,96316.05
2023-01-19T02:29:48.002Z,96319.00
2023-01-19T02:32:16.275Z,96319.08
2023-01-19T02:34:44.592Z,96323.26
2023-01-19T02:37:17.624Z,96327.42
2023-01-19T02:39:56.606Z,96326.68
2023-01-19T02:42:30.368Z,96327.13
2023-01-19T02:44:58.899Z,96327.43
2023-01-19T02:47:27.369Z,96335.40
2023-01-19T02:49:58.006Z,96333.27
2023-01-19T02:52:27.525Z,96332.37
2023-01-19T02:55:20.283Z,96310.51
2023-01-19T02:57:51.318Z,96321.59
2023-01-19T03:00:33.215Z,96323.56
2023-01-19T03:03:12.108Z,96325.53
2023-01-19T03:05:56.947Z,96320.90
2023-01-19T03:08:42.918Z,96322.41
2023-01-19T03:11:13.581Z,96320.75
2023-01-19T03:13:47.713Z,96306.41
2023-01-19T03:16:28.255Z,96308.99
2023-01-19T03:19:04.351Z,96304.81
2023-01-19T03:21:36.312Z,96309.06
2023-01-19T03:24:07.845Z,96313.55
2023-01-19T03:26:44.754Z,96322.27
2023-01-19T03:29:15.191Z,96319.39
2023-01-19T03:31:47.518Z,96314.38
2023-01-19T03:34:17.934Z,96311.19
2023-01-19T03:36:54.299Z,96315.29
2023-01-19T03:39:25.236Z,96320.52
2023-01-19T03:41:59.271Z,96319.14
2023-01-19T03:44:30.075Z,96322.48
2023-01-19T03:47:00.407Z,96326.74
2023-01-19T03:49:34.932Z,96333.95
2023-01-19T03:52:03.189Z,96333.49
2023-01-19T03:54:32.295Z,96336.91
2023-01-19T03:57:00.987Z,96329.92
2023-01-19T03:59:29.466Z,96328.86
2023-01-19T04:01:58.042Z,96327.56
2023-01-19T04:04:26.530Z,96328.94
2023-01-19T04:06:54.914Z,96326.13
2023-01-19T04:09:26.571Z,96320.36
2023-01-19T04:11:56.104Z,96309.88
2023-01-19T04:14:24.522Z,96296.84
2023-01-19T04:16:52.967Z,96294.55
2023-01-19T04:19:21.297Z,96303.29
2023-01-19T04:21:50.951Z,96311.94
2023-01-19T04:24:19.234Z,96313.77
2023-01-19T04:26:47.586Z,96318.70
2023-01-19T04:29:16.023Z,96323.02
2023-01-19T04:31:44.368Z,96322.64
2023-01-19T04:34:12.733Z,96322.10
2023-01-19T04:36:41.016Z,96317.02
2023-01-19T04:39:09.386Z,96311.55
2023-01-19T04:41:37.653Z,96308.52
2023-01-19T04:44:06.286Z,96312.08
2023-01-19T04:46:35.207Z,96313.83
2023-01-19T04:49:08.224Z,96330.29
2023-01-19T04:51:37.325Z,96343.02
2023-01-19T04:54:09.050Z,96345.92
2023-01-19T04:56:37.659Z,96352.15
2023-01-19T04:59:06.122Z,96359.27
2023-01-19T05:01:34.609Z,96363.52
2023-01-19T05:04:05.334Z,96370.20
2023-01-19T05:06:37.971Z,96371.94
2023-01-19T05:09:17.033Z,96367.98
2023-01-19T05:11:56.954Z,96363.81
2023-01-19T05:14:36.085Z,96363.30
2023-01-19T05:17:04.748Z,96365.28
2023-01-19T05:19:33.220Z,96371.14
2023-01-19T05:22:04.069Z,96378.42
2023-01-19T05:24:32.962Z,96389.13
2023-01-19T05:27:02.079Z,96397.10
2023-01-19T05:29:30.589Z,96402.80
2023-01-19T05:31:58.990Z,96403.42
2023-01-19T05:34:27.312Z,96406.39
2023-01-19T05:36:55.535Z,96411.79
2023-01-19T05:39:23.861Z,96416.48
2023-01-19T05:41:52.066Z,96414.73
2023-01-19T05:44:20.203Z,96419.38
2023-01-19T05:46:48.490Z,96422.80
2023-01-19T05:49:18.636Z,96422.27
2023-01-19T05:51:54.467Z,96427.96
2023-01-19T05:54:22.985Z,96424.09
2023-01-19T05:56:51.366Z,96424.17
2023-01-19T05:59:24.272Z,96427.38
2023-01-19T06:01:54.218Z,96422.36
2023-01-19T06:04:33.703Z,96413.47
2023-01-19T06:07:02.604Z,96408.16
2023-01-19T06:09:31.329Z,96411.56
2023-01-19T06:12:03.757Z,96406.02
2023-01-19T06:14:32.734Z,96412.33
2023-01-19T06:17:03.593Z,96409.89
2023-01-19T06:19:32.239Z,96406.09
2023-01-19T06:22:01.625Z,96407.54
2023-01-19T06:24:30.829Z,96397.37
2023-01-19T06:27:01.299Z,96396.31
2023-01-19T06:29:30.029Z,96396.23
2023-01-19T06:31:58.294Z,96402.53
2023-01-19T06:34:29.058Z,96413.84
2023-01-19T06:37:02.540Z,96418.17
2023-01-19T06:42:45.080Z,96396.15
2023-01-19T06:45:13.419Z,96391.45
2023-01-19T06:47:41.669Z,96397.83
2023-01-19T06:50:10.388Z,96402.16
2023-01-19T06:52:42.639Z,96401.85
2023-01-19T06:55:12.345Z,96405.42
2023-01-19T06:57:40.621Z,96404.52
2023-01-19T07:00:09.726Z,96396.92
2023-01-19T07:02:44.462Z,96388.41
2023-01-19T07:05:14.581Z,96397.29
2023-01-19T07:07:45.149Z,96402.76
2023-01-19T07:10:15.839Z,96397.36
2023-01-19T07:12:47.694Z,96401.77
2023-01-19T07:15:17.874Z,96398.20
2023-01-19T07:17:46.784Z,96382.31
2023-01-19T07:20:15.159Z,96376.84
2023-01-19T07:22:46.735Z,96362.10
2023-01-19T07:25:17.208Z,96359.59
2023-01-19T07:27:45.624Z,96375.84
2023-01-19T07:30:16.187Z,96390.34
2023-01-19T07:32:44.821Z,96405.70
2023-01-19T07:35:13.453Z,96403.11
2023-01-19T07:37:41.826Z,96399.98
2023-01-19T07:40:16.392Z,96394.21
2023-01-19T07:42:48.887Z,96391.98
2023-01-19T07:45:17.723Z,96396.61
2023-01-19T07:47:49.058Z,96394.69
2023-01-19T07:50:21.472Z,96397.48
2023-01-19T07:52:57.606Z,96407.52
2023-01-19T07:55:25.815Z,96412.83
2023-01-19T07:57:54.097Z,96423.66
2023-01-19T08:00:24.857Z,96431.98
2023-01-19T08:02:53.966Z,96425.98
2023-01-19T08:05:22.435Z,96428.14
2023-01-19T08:07:53.239Z,96427.26
2023-01-19T08:10:25.856Z,96426.21
2023-01-19T08:12:55.587Z,96417.35
2023-01-19T08:15:31.094Z,96408.58
2023-01-19T08:18:01.714Z,96407.25
2023-01-19T08:20:30.105Z,96400.70
2023-01-19T08:23:03.102Z,96394.44
2023-01-19T08:25:41.028Z,96397.17
2023-01-19T08:28:10.518Z,96409.33
2023-01-19T08:30:39.076Z,96402.28
2023-01-19T08:33:10.732Z,96397.66
2023-01-19T08:35:43.675Z,96395.39
2023-01-19T08:38:13.045Z,96387.79
2023-01-19T08:40:42.162Z,96392.14
2023-01-19T08:43:15.992Z,96393.89
2023-01-19T08:45:48.822Z,96394.79
2023-01-19T08:48:38.158Z,96398.96
2023-01-19T08:51:22.983Z,96398.17
2023-01-19T08:53:51.372Z,96388.65
2023-01-19T08:56:20.766Z,96386.45
2023-01-19T08:58:59.474Z,96384.48
2023-01-19T09:01:37.519Z,96384.34
2023-01-19T09:04:06.376Z,96383.34
2023-01-19T09:06:34.909Z,96382.92
2023-01-19T09:09:03.453Z,96373.73
2023-01-19T09:11:40.904Z,96371.61
2023-01-19T09:14:09.299Z,96376.33
2023-01-19T09:16:37.685Z,96380.05
2023-01-19T09:19:11.315Z,96378.79
2023-01-19T09:21:39.887Z,96376.34
2023-01-19T09:24:09.069Z,96368.60
2023-01-19T09:26:37.338Z,96359.17
2023-01-19T09:29:05.571Z,96361.70
2023-01-19T09:31:33.955Z,96378.17
2023-01-19T09:34:02.664Z,96384.52
2023-01-19T09:36:31.128Z,96383.96
2023-01-19T09:39:00.168Z,96381.02
2023-01-19T09:44:35.606Z,96382.95
2023-01-19T09:47:14.737Z,96387.36
2023-01-19T09:49:58.956Z,96386.43
2023-01-19T09:52:29.857Z,96382.43
2023-01-19T09:54:59.342Z,96380.54
2023-01-19T09:57:36.068Z,96374.82
2023-01-19T10:00:24.297Z,96363.86
2023-01-19T10:03:05.265Z,96354.64
2023-01-19T10:05:47.412Z,96348.61
2023-01-19T10:08:34.323Z,96347.85
2023-01-19T10:11:03.319Z,96355.38
2023-01-19T10:13:39.279Z,96356.20
2023-01-19T10:16:49.369Z,96360.52
2023-01-19T10:19:38.648Z,96366.48
2023-01-19T10:22:28.570Z,96361.86
2023-01-19T10:25:00.531Z,96354.96
2023-01-19T10:27:31.845Z,96353.77
2023-01-19T10:30:33.572Z,96352.17
2023-01-19T10:33:02.249Z,96346.38
2023-01-19T10:35:30.940Z,96341.73
2023-01-19T10:38:02.439Z,96334.73
2023-01-19T10:40:37.546Z,96333.96
2023-01-19T10:43:44.438Z,96345.45
2023-01-19T10:46:39.043Z,96343.41
2023-01-19T10:49:31.290Z,96336.55
2023-01-19T10:52:01.110Z,96337.23
2023-01-19T10:54:32.043Z,96345.27
2023-01-19T10:57:46.356Z,96351.67
2023-01-19T11:00:39.979Z,96348.09
2023-01-19T11:03:33.153Z,96351.14
2023-01-19T11:06:15.370Z,96350.33
2023-01-19T11:08:46.236Z,96354.83
2023-01-19T11:11:15.149Z,96353.73
2023-01-19T11:13:44.387Z,96352.67
2023-01-19T11:16:34.906Z,96343.09
2023-01-19T11:19:05.889Z,96348.95
2023-01-19T11:21:34.547Z,96354.81
2023-01-19T11:24:09.619Z,96350.44
2023-01-19T11:26:50.984Z,96346.64
2023-01-19T11:29:32.956Z,96347.34
2023-01-19T11:32:28.594Z,96350.98
2023-01-19T11:34:57.192Z,96342.54
2023-01-19T11:37:30.053Z,96331.60
2023-01-19T11:40:06.156Z,96336.01
2023-01-19T11:42:36.741Z,96341.90
2023-01-19T11:45:14.931Z,96350.36
2023-01-19T11:47:46.077Z,96354.27
2023-01-19T11:50:36.029Z,96348.62
2023-01-19T11:53:28.324Z,96357.48
2023-01-19T11:56:01.653Z,96363.55
2023-01-19T11:58:33.650Z,96366.16
2023-01-19T12:01:24.889Z,96370.45
2023-01-19T12:04:01.600Z,96370.68
2023-01-19T12:06:33.896Z,96372.70
2023-01-19T12:09:12.508Z,96385.11
2023-01-19T12:11:44.907Z,96386.69
2023-01-19T12:14:58.097Z,96390.45
2023-01-19T12:17:27.844Z,96392.21
2023-01-19T12:20:20.185Z,96399.47
2023-01-19T12:22:59.826Z,96396.09
2023-01-19T12:25:58.173Z,96391.71
2023-01-19T12:28:31.851Z,96386.20
2023-01-19T12:31:01.861Z,96396.95
2023-01-19T12:33:40.811Z,96404.55
2023-01-19T12:36:09.219Z,96408.12
2023-01-19T12:38:56.352Z,96411.19
2023-01-19T12:41:38.008Z,96413.91
2023-01-19T12:44:14.065Z,96417.70
2023-01-19T12:47:20.526Z,96416.63
2023-01-19T12:49:57.186Z,96417.51
2023-01-19T12:52:31.012Z,96424.57
2023-01-19T12:55:14.722Z,96436.69
2023-01-19T12:58:21.914Z,96437.13
2023-01-19T13:01:21.408Z,96439.27
2023-01-19T13:04:01.579Z,96445.32
2023-01-19T13:07:10.712Z,96451.81
2023-01-19T13:09:43.437Z,96462.81
2023-01-19T13:12:14.851Z,96462.33
2023-01-19T13:14:43.796Z,96459.02
2023-01-19T13:17:33.678Z,96440.86
2023-01-19T13:20:17.457Z,96424.59
2023-01-19T13:23:11.926Z,96422.94
2023-01-19T13:25:42.232Z,96430.05
2023-01-19T13:28:16.683Z,96444.50
2023-01-19T13:30:57.219Z,96439.47
2023-01-19T13:33:28.730Z,96448.92
2023-01-19T13:35:59.098Z,96450.36
2023-01-19T13:38:29.527Z,96439.20
2023-01-19T13:41:02.359Z,96435.05
2023-01-19T13:43:38.132Z,96438.42
2023-01-19T13:46:13.730Z,96450.82
2023-01-19T13:48:55.515Z,96450.11
2023-01-19T13:51:23.998Z,96451.16
2023-01-19T13:54:00.078Z,96447.42
2023-01-19T13:56:33.521Z,96442.16
2023-01-19T13:59:10.084Z,96446.65
2023-01-19T14:01:41.405Z,96448.06
2023-01-19T14:04:29.468Z,96455.13
2023-01-19T14:07:03.621Z,96457.98
2023-01-19T14:09:32.460Z,96462.65
2023-01-19T14:12:16.067Z,96457.73
2023-01-19T14:18:35.470Z,96479.16
2023-01-19T14:21:08.129Z,96481.17
2023-01-19T14:24:08.180Z,96476.90
2023-01-19T14:27:06.625Z,96481.30
2023-01-19T14:29:36.302Z,96483.69
2023-01-19T14:32:04.800Z,96485.17
2023-01-19T14:34:56.385Z,96487.48
2023-01-19T14:37:33.137Z,96492.20
2023-01-19T14:40:04.979Z,96493.84
2023-01-19T14:42:54.849Z,96495.23
2023-01-19T14:45:38.552Z,96488.04
2023-01-19T14:48:19.442Z,96490.89
2023-01-19T14:51:02.534Z,96495.35
2023-01-19T14:53:37.346Z,96490.52
2023-01-19T14:56:07.720Z,96486.61
2023-01-19T14:58:36.788Z,96482.99
2023-01-19T15:01:31.307Z,96486.78
2023-01-19T15:03:59.774Z,96476.29
2023-01-19T15:06:31.683Z,96479.74
2023-01-19T15:09:00.123Z,96485.09
2023-01-19T15:11:34.499Z,96482.80
2023-01-19T15:14:03.164Z,96485.88
2023-01-19T15:16:34.534Z,96490.02
2023-01-19T15:19:02.860Z,96495.36
2023-01-19T15:21:31.056Z,96499.15
2023-01-19T15:24:02.241Z,96502.44
2023-01-19T15:26:30.736Z,96507.58
2023-01-19T15:28:59.838Z,96513.63
2023-01-19T15:31:28.143Z,96516.13
2023-01-19T15:33:59.697Z,96521.62
2023-01-19T15:36:28.679Z,96529.94
2023-01-19T15:38:57.448Z,96530.45
2023-01-19T15:41:28.019Z,96537.38
2023-01-19T15:43:56.392Z,96546.89
2023-01-19T15:46:25.933Z,96547.61
2023-01-19T15:48:54.931Z,96552.66
2023-01-19T15:51:27.925Z,96560.39
2023-01-19T15:53:56.759Z,96572.70
2023-01-19T15:56:27.561Z,96577.19
2023-01-19T15:58:56.671Z,96586.67
2023-01-19T16:01:35.241Z,96593.99
2023-01-19T16:04:06.388Z,96599.48
2023-01-19T16:06:34.743Z,96598.83
2023-01-19T16:09:03.994Z,96605.61
2023-01-19T16:11:34.442Z,96610.61
2023-01-19T16:14:02.890Z,96613.85
2023-01-19T16:16:31.486Z,96617.48
2023-01-19T16:18:59.957Z,96621.20
2023-01-19T16:21:28.583Z,96627.25
2023-01-19T16:23:57.037Z,96624.02
2023-01-19T16:26:30.022Z,96630.08
2023-01-19T16:29:09.896Z,96636.41
2023-01-19T16:31:40.056Z,96648.52
2023-01-19T16:34:09.748Z,96647.87
2023-01-19T16:36:40.473Z,96650.80
2023-01-19T16:39:28.923Z,96661.08
2023-01-19T16:41:58.477Z,96672.96
2023-01-19T16:44:27.733Z,96670.06
2023-01-19T16:46:56.278Z,96639.19
2023-01-19T16:49:28.466Z,96628.63
2023-01-19T16:51:59.589Z,96619.30
2023-01-19T16:55:09.628Z,96623.88
2023-01-19T16:57:41.327Z,96632.35
2023-01-19T17:00:10.965Z,96634.05
2023-01-19T17:02:39.743Z,96619.17
2023-01-19T17:05:08.743Z,96605.30
2023-01-19T17:07:37.356Z,96616.14
2023-01-19T17:10:06.433Z,96627.35
2023-01-19T17:12:34.986Z,96637.68
2023-01-19T17:15:03.603Z,96641.36
2023-01-19T17:17:31.891Z,96640.15
2023-01-19T17:20:00.401Z,96643.95
2023-01-19T17:22:28.748Z,96645.02
2023-01-19T17:24:56.986Z,96646.62
2023-01-19T17:27:25.359Z,96648.67
2023-01-19T17:29:53.827Z,96656.08
2023-01-19T17:32:22.231Z,96655.69
2023-01-19T17:34:51.097Z,96668.42
2023-01-19T17:37:19.708Z,96671.09
2023-01-19T17:39:48.586Z,96668.17
2023-01-19T17:42:17.016Z,96667.93
2023-01-19T17:44:45.268Z,96679.80
2023-01-19T17:47:13.780Z,96687.17
2023-01-19T17:49:42.192Z,96684.55
2023-01-19T17:52:10.601Z,96683.69
2023-01-19T17:54:38.903Z,96692.59
2023-01-19T17:57:07.590Z,96710.25
2023-01-19T17:59:37.873Z,96716.77
2023-01-19T18:02:06.386Z,96722.07
2023-01-19T18:04:38.319Z,96716.46
2023-01-19T18:07:07.299Z,96711.23
2023-01-19T18:09:35.699Z,96716.75
2023-01-19T18:12:04.730Z,96721.89
2023-01-19T18:14:34.999Z,96725.81
2023-01-19T18:17:04.003Z,96726.98
2023-01-19T18:19:32.653Z,96725.93
2023-01-19T18:22:00.970Z,96732.89
2023-01-19T18:24:29.488Z,96738.79
2023-01-19T18:26:58.630Z,96745.05
2023-01-19T18:29:27.005Z,96751.84
2023-01-19T18:31:56.111Z,96752.32
2023-01-19T18:34:27.776Z,96757.60
2023-01-19T18:36:56.081Z,96764.78
2023-01-19T18:39:24.450Z,96769.20
2023-01-19T18:41:52.758Z,96780.13
2023-01-19T18:44:22.578Z,96787.06
2023-01-19T18:46:50.822Z,96792.86
2023-01-19T18:49:19.141Z,96798.06
2023-01-19T18:52:07.405Z,96805.06
2023-01-19T18:54:35.732Z,96805.83
2023-01-19T18:57:04.168Z,96796.91
2023-01-19T18:59:32.560Z,96795.48
2023-01-19T19:02:01.751Z,96797.38
2023-01-19T19:04:30.103Z,96793.49
2023-01-19T19:06:58.356Z,96786.34
2023-01-19T19:09:26.701Z,96797.39
2023-01-19T19:11:54.855Z,96801.42
2023-01-19T19:14:22.995Z,96798.54
2023-01-19T19:16:51.351Z,96794.42
2023-01-19T19:19:20.032Z,96793.13
2023-01-19T19:21:49.071Z,96780.10
2023-01-19T19:24:17.310Z,96770.65
2023-01-19T19:26:45.631Z,96763.05
2023-01-19T19:29:13.996Z,96766.02
2023-01-19T19:31:42.399Z,96768.67
2023-01-19T19:34:12.478Z,96776.38
2023-01-19T19:36:42.668Z,96781.02
2023-01-19T19:39:10.995Z,96785.05
2023-01-19T19:41:39.263Z,96786.11
2023-01-19T19:44:09.961Z,96789.08
2023-01-19T19:46:38.809Z,96799.28
2023-01-19T19:49:10.135Z,96800.94
2023-01-19T19:51:38.522Z,96800.25
2023-01-19T19:54:06.925Z,96803.38
2023-01-19T19:56:35.948Z,96804.73
2023-01-19T19:59:04.268Z,96800.24
2023-01-19T20:01:33.980Z,96798.42
2023-01-19T20:04:07.442Z,96797.73
2023-01-19T20:06:39.055Z,96803.74
2023-01-19T20:09:10.486Z,96800.31
2023-01-19T20:11:39.347Z,96794.68
2023-01-19T20:14:10.116Z,96795.13
2023-01-19T20:16:39.057Z,96798.71
2023-01-19T20:19:07.921Z,96795.90
2023-01-19T20:21:38.455Z,96793.69
2023-01-19T20:24:19.427Z,96789.95
2023-01-19T20:26:51.813Z,96793.89
2023-01-19T20:29:23.242Z,96801.73
2023-01-19T20:31:55.021Z,96806.60
2023-01-19T20:34:26.965Z,96810.93
2023-01-19T20:36:55.920Z,96811.46
2023-01-19T20:39:25.261Z,96819.67
2023-01-19T20:41:53.720Z,96821.42
2023-01-19T20:44:24.432Z,96827.27
2023-01-19T20:46:54.213Z,96840.27
2023-01-19T20:49:22.816Z,96844.73
2023-01-19T20:51:52.234Z,96845.84
2023-01-19T20:54:24.580Z,96847.55
2023-01-19T20:56:53.539Z,96844.72
2023-01-19T20:59:22.086Z,96842.44
2023-01-19T21:01:50.577Z,96849.11
2023-01-19T21:04:19.097Z,96851.07
2023-01-19T21:06:47.345Z,96857.66
2023-01-19T21:09:15.864Z,96851.95
2023-01-19T21:11:44.215Z,96855.14
2023-01-19T21:14:12.454Z,96862.21
2023-01-19T21:16:42.650Z,96855.04
2023-01-19T21:19:11.991Z,96854.27
2023-01-19T21:21:40.251Z,96861.02
2023-01-19T21:24:10.853Z,96863.90
2023-01-19T21:26:39.525Z,96865.12
2023-01-19T21:29:13.292Z,96865.48
2023-01-19T21:31:42.411Z,96866.47
2023-01-19T21:34:10.941Z,96857.36
2023-01-19T21:36:41.802Z,96856.97
2023-01-19T21:39:10.012Z,96867.67
2023-01-19T21:41:40.033Z,96880.96
2023-01-19T21:44:08.605Z,96882.77
2023-01-19T21:46:37.039Z,96876.69
2023-01-19T21:49:07.787Z,96873.26
2023-01-19T21:51:36.868Z,96874.41
2023-01-19T21:54:06.889Z,96875.63
2023-01-19T21:56:38.162Z,96878.38
2023-01-19T21:59:06.561Z,96880.11
2023-01-19T22:01:35.274Z,96887.17
2023-01-19T22:04:03.787Z,96899.40
2023-01-19T22:06:32.072Z,96906.77
2023-01-19T22:09:00.932Z,96901.44
2023-01-19T22:11:30.347Z,96886.45
2023-01-19T22:13:59.840Z,96876.57
2023-01-19T22:16:29.549Z,96863.88
2023-01-19T22:19:01.294Z,96856.03
2023-01-19T22:21:35.693Z,96851.99
2023-01-19T22:24:05.194Z,96855.26
2023-01-19T22:26:34.531Z,96860.73
2023-01-19T22:29:06.579Z,96857.45
2023-01-19T22:31:35.204Z,96855.30
2023-01-19T22:34:04.291Z,96858.15
2023-01-19T22:36:36.333Z,96861.02
2023-01-19T22:39:07.238Z,96859.62
2023-01-19T22:41:37.068Z,96860.89
2023-01-19T22:44:07.787Z,96854.86
2023-01-19T22:46:37.564Z,96849.50
2023-01-19T22:49:07.718Z,96846.05
2023-01-19T22:51:36.689Z,96845.72
2023-01-19T22:54:05.553Z,96841.90
2023-01-19T22:56:35.934Z,96831.89
2023-01-19T22:59:05.098Z,96834.44
2023-01-19T23:01:37.208Z,96834.54
2023-01-19T23:04:06.754Z,96845.88
2023-01-19T23:06:37.358Z,96850.84
2023-01-19T23:09:08.566Z,96851.05
2023-01-19T23:11:39.450Z,96847.98
2023-01-19T23:14:11.569Z,96851.92
2023-01-19T23:16:39.734Z,96853.97
2023-01-19T23:19:08.100Z,96851.10
2023-01-19T23:21:36.993Z,96847.92
2023-01-19T23:24:05.397Z,96857.71
2023-01-19T23:26:39.569Z,96860.75
2023-01-19T23:29:11.999Z,96856.50
2023-01-19T23:31:44.299Z,96853.02
2023-01-19T23:34:13.752Z,96855.66
2023-01-19T23:36:43.198Z,96858.92
2023-01-19T23:39:20.666Z,96850.11
2023-01-19T23:41:49.761Z,96841.43
2023-01-19T23:44:18.502Z,96845.66
2023-01-19T23:46:46.883Z,96853.14
2023-01-19T23:49:15.276Z,96856.77
2023-01-19T23:51:43.415Z,96855.02
2023-01-19T23:54:12.422Z,96857.65
2023-01-19T23:56:42.660Z,96857.56
2023-01-19T23:59:14.244Z,96858.61
